Time;durP1;ratioP1;P1;durP2;ratioP2;P2;SDS_P1;SDS_P2;PMS_P1;PMS_P2;Temp;Humidity;BMP_temperature;BMP_pressure;BME280_temperature;BME280_humidity;BME280_pressure;Samples;Min_cycle;Max_cycle;Signal;HPM_P1;HPM_P2
2023/03/28 00:00:42;;;;;;;;;;;;;;;;;;4440591;32;20366;-82
2023/03/28 00:03:07;;;;;;;;;;;;;;;;;;4437024;32;19947;-81
2023/03/28 00:05:32;;;;;;;;;;;;;;;;;;4438614;32;19989;-80
2023/03/28 00:07:58;;;;;;;;;;;;;;;;;;4438697;32;20352;-82
2023/03/28 00:10:23;;;;;;;;;;;;;;;;;;4437680;32;19939;-82
2023/03/28 00:12:49;;;;;;;;;;;;;;;;;;4435958;32;20308;-81
2023/03/28 00:15:14;;;;;;;;;;;;;;;;;;4435851;32;19955;-81
2023/03/28 00:17:40;;;;;;;;;;;;;;;;;;4435692;32;19963;-81
2023/03/28 00:20:08;;;;;;;;;;;;;;;;;;4437307;32;20269;-81
2023/03/28 00:22:33;;;;;;;;;;;;;;;;;;4436584;32;19993;-80
2023/03/28 00:24:58;;;;;;;;;;;;;;;;;;4435473;32;20337;-82
2023/03/28 00:27:23;;;;;;;;;;;;;;;;;;4435191;32;19959;-81
2023/03/28 00:29:48;;;;;;;;;;;;;;;;;;4435660;32;19941;-81
2023/03/28 00:32:13;;;;;;;;;;;;;;;;;;4436625;32;19955;-81
2023/03/28 00:34:38;;;;;;;;;;;;;;;;;;4438369;32;19937;-81
2023/03/28 00:37:04;;;;;;;;;;;;;;;;;;4441131;32;19944;-80
2023/03/28 00:39:30;;;;;;;;;;;;;;;;;;4441629;32;19985;-82
2023/03/28 00:41:56;;;;;;;;;;;;;;;;;;4438666;32;19933;-82
2023/03/28 00:44:21;;;;;;;;;;;;;;;;;;4439918;32;19936;-81
2023/03/28 00:46:46;;;;;;;;;;;;;;;;;;4441496;32;19950;-81
2023/03/28 00:49:11;;;;;;;;;;;;;;;;;;4448187;32;19932;-82
2023/03/28 00:51:36;;;;;;;;;;;;;;;;;;4448482;32;19937;-81
2023/03/28 00:54:02;;;;;;;;;;;;;;;;;;4446446;32;19943;-82
2023/03/28 00:56:28;;;;;;;;;;;;;;;;;;4442640;32;19947;-81
2023/03/28 00:58:53;;;;;;;;;;;;;;;;;;4440126;32;19933;-82
2023/03/28 01:01:18;;;;;;;;;;;;;;;;;;4439009;32;19960;-82
2023/03/28 01:03:45;;;;;;;;;;;;;;;;;;4438047;32;19941;-80
2023/03/28 01:06:10;;;;;;;;;;;;;;;;;;4439733;32;20314;-81
2023/03/28 01:08:35;;;;;;;;;;;;;;;;;;4440635;32;19943;-81
2023/03/28 01:11:00;;;;;;;;;;;;;;;;;;4440310;32;19980;-81
2023/03/28 01:13:25;;;;;;;;;;;;;;;;;;4427060;32;19937;-82
2023/03/28 01:15:50;;;;;;;;;;;;;;;;;;4425838;32;20311;-81
2023/03/28 01:18:17;;;;;;;;;;;;;;;;;;4423045;32;19937;-81
2023/03/28 01:20:45;;;;;;;;;;;;;;;;;;4422262;32;20322;-80
2023/03/28 01:23:10;;;;;;;;;;;;;;;;;;4422185;32;19983;-81
2023/03/28 01:25:35;;;;;;;;;;;;;;;;;;4422686;32;19933;-81
2023/03/28 01:28:02;;;;;;;;;;;;;;;;;;4422168;32;19972;-81
2023/03/28 01:30:27;;;;;;;;;;;;;;;;;;4422721;32;19929;-81
2023/03/28 01:32:52;;;;;;;;;;;;;;;;;;4424057;32;19947;-81
2023/03/28 01:35:17;;;;;;;;;;;;;;;;;;4422452;32;19948;-81
2023/03/28 01:37:42;;;;;;;;;;;;;;;;;;4422022;32;19948;-81
2023/03/28 01:40:10;;;;;;;;;;;;;;;;;;4423481;32;19933;-81
2023/03/28 01:42:35;;;;;;;;;;;;;;;;;;4423198;32;19971;-81
2023/03/28 01:45:00;;;;;;;;;;;;;;;;;;4423171;32;20289;-81
2023/03/28 01:47:25;;;;;;;;;;;;;;;;;;4422502;32;20310;-81
2023/03/28 01:49:50;;;;;;;;;;;;;;;;;;4422251;32;20396;-81
2023/03/28 01:52:16;;;;;;;;;;;;;;;;;;4422407;32;19933;-82
2023/03/28 01:54:42;;;;;;;;;;;;;;;;;;4422549;32;19972;-82
2023/03/28 01:57:09;;;;;;;;;;;;;;;;;;4423268;32;19949;-80
2023/03/28 01:59:35;;;;;;;;;;;;;;;;;;4429934;32;19944;-80
2023/03/28 02:02:00;;;;;;;;;;;;;;;;;;4428145;32;19975;-81
2023/03/28 02:04:28;;;;;;;;;;;;;;;;;;4422802;32;19940;-81
2023/03/28 02:06:53;;;;;;;;;;;;;;;;;;4426688;32;19951;-82
2023/03/28 02:09:18;;;;;;;;;;;;;;;;;;4431583;32;19941;-82
2023/03/28 02:11:43;;;;;;;;;;;;;;;;;;4431494;32;19932;-82
2023/03/28 02:14:08;;;;;;;;;;;;;;;;;;4426585;32;19970;-82
2023/03/28 02:16:35;;;;;;;;;;;;;;;;;;4425338;32;19974;-82
2023/03/28 02:19:00;;;;;;;;;;;;;;;;;;4425593;32;19973;-81
2023/03/28 02:21:26;;;;;;;;;;;;;;;;;;4424672;32;19972;-82
2023/03/28 02:23:51;;;;;;;;;;;;;;;;;;4429727;32;19986;-82
2023/03/28 02:26:17;;;;;;;;;;;;;;;;;;4457353;32;19944;-82
2023/03/28 02:28:42;;;;;;;;;;;;;;;;;;4443944;32;19940;-82
2023/03/28 02:31:07;;;;;;;;;;;;;;;;;;4458857;32;20377;-82
2023/03/28 02:33:32;;;;;;;;;;;;;;;;;;4461103;32;19949;-80
2023/03/28 02:35:57;;;;;;;;;;;;;;;;;;4460367;32;19946;-81
2023/03/28 02:38:22;;;;;;;;;;;;;;;;;;4459821;32;20011;-82
2023/03/28 02:40:47;;;;;;;;;;;;;;;;;;4461916;32;19951;-81
2023/03/28 02:43:12;;;;;;;;;;;;;;;;;;4453583;32;19947;-81
2023/03/28 02:45:38;;;;;;;;;;;;;;;;;;4453839;32;19940;-82
2023/03/28 02:48:03;;;;;;;;;;;;;;;;;;4455237;32;19944;-80
2023/03/28 02:50:28;;;;;;;;;;;;;;;;;;4454147;32;19960;-81
2023/03/28 02:52:53;;;;;;;;;;;;;;;;;;4466068;32;19948;-82
2023/03/28 02:55:18;;;;;;;;;;;;;;;;;;4469018;32;19979;-81
2023/03/28 02:57:43;;;;;;;;;;;;;;;;;;4437038;32;19925;-81
2023/03/28 03:00:11;;;;;;;;;;;;;;;;;;4434872;32;19937;-82
2023/03/28 03:02:37;;;;;;;;;;;;;;;;;;4434616;32;19952;-81
2023/03/28 03:05:02;;;;;;;;;;;;;;;;;;4447197;32;19956;-81
2023/03/28 03:07:27;;;;;;;;;;;;;;;;;;4443367;32;19941;-81
2023/03/28 03:09:53;;;;;;;;;;;;;;;;;;4428492;32;19943;-82
2023/03/28 03:12:18;;;;;;;;;;;;;;;;;;4442196;32;19977;-81
2023/03/28 03:14:43;;;;;;;;;;;;;;;;;;4426983;32;19955;-81
2023/03/28 03:17:08;;;;;;;;;;;;;;;;;;4425077;32;19948;-82
2023/03/28 03:19:33;;;;;;;;;;;;;;;;;;4430664;32;20010;-82
2023/03/28 03:21:58;;;;;;;;;;;;;;;;;;4430846;32;19943;-82
2023/03/28 03:24:24;;;;;;;;;;;;;;;;;;4431206;32;19937;-81
2023/03/28 03:26:49;;;;;;;;;;;;;;;;;;4428143;32;19943;-81
2023/03/28 03:29:14;;;;;;;;;;;;;;;;;;4439060;32;19959;-81
2023/03/28 03:31:40;;;;;;;;;;;;;;;;;;4424664;32;20310;-81
2023/03/28 03:34:06;;;;;;;;;;;;;;;;;;4425999;32;19932;-81
2023/03/28 03:36:31;;;;;;;;;;;;;;;;;;4429262;32;20326;-81
2023/03/28 03:38:56;;;;;;;;;;;;;;;;;;4424923;32;19974;-81
2023/03/28 03:41:21;;;;;;;;;;;;;;;;;;4423208;32;19997;-81
2023/03/28 03:43:47;;;;;;;;;;;;;;;;;;4438729;32;19960;-80
2023/03/28 03:46:12;;;;;;;;;;;;;;;;;;4426130;32;19965;-80
2023/03/28 03:48:37;;;;;;;;;;;;;;;;;;4427007;32;20251;-80
2023/03/28 03:51:02;;;;;;;;;;;;;;;;;;4424831;32;19957;-81
2023/03/28 03:53:27;;;;;;;;;;;;;;;;;;4422969;32;20000;-81
2023/03/28 03:55:52;;;;;;;;;;;;;;;;;;4422967;32;19936;-81
2023/03/28 03:58:18;;;;;;;;;;;;;;;;;;4436988;32;20280;-81
2023/03/28 04:00:43;;;;;;;;;;;;;;;;;;4437543;32;19986;-82
2023/03/28 04:03:08;;;;;;;;;;;;;;;;;;4436938;32;20019;-82
2023/03/28 04:05:33;;;;;;;;;;;;;;;;;;4422591;32;20332;-81
2023/03/28 04:08:00;;;;;;;;;;;;;;;;;;4423148;32;19948;-81
2023/03/28 04:10:25;;;;;;;;;;;;;;;;;;4436644;32;19988;-82
2023/03/28 04:12:50;;;;;;;;;;;;;;;;;;4422587;32;19944;-80
2023/03/28 04:15:15;;;;;;;;;;;;;;;;;;4426460;32;19937;-81
2023/03/28 04:17:42;;;;;;;;;;;;;;;;;;4447555;32;19966;-82
2023/03/28 04:20:10;;;;;;;;;;;;;;;;;;4423921;32;20362;-82
2023/03/28 04:22:35;;;;;;;;;;;;;;;;;;4422632;32;20343;-81
2023/03/28 04:25:01;;;;;;;;;;;;;;;;;;4436527;32;19968;-81
2023/03/28 04:27:30;;;;;;;;;;;;;;;;;;4436810;32;19937;-82
2023/03/28 04:29:55;;;;;;;;;;;;;;;;;;4436814;32;20348;-81
2023/03/28 04:32:20;;;;;;;;;;;;;;;;;;4422712;32;20330;-81
2023/03/28 04:34:45;;;;;;;;;;;;;;;;;;4422640;32;19994;-82
2023/03/28 04:37:10;;;;;;;;;;;;;;;;;;4437313;32;19984;-82
2023/03/28 04:39:35;;;;;;;;;;;;;;;;;;4423128;32;19937;-81
2023/03/28 04:42:03;;;;;;;;;;;;;;;;;;4439226;32;19987;-81
2023/03/28 04:44:28;;;;;;;;;;;;;;;;;;4438224;32;20395;-81
2023/03/28 04:46:53;;;;;;;;;;;;;;;;;;4422328;32;19937;-81
2023/03/28 04:49:19;;;;;;;;;;;;;;;;;;4436910;32;19940;-82
2023/03/28 04:51:44;;;;;;;;;;;;;;;;;;4422729;32;19951;-82
2023/03/28 04:54:10;;;;;;;;;;;;;;;;;;4422445;32;20350;-82
2023/03/28 04:56:35;;;;;;;;;;;;;;;;;;4422375;32;19948;-81
2023/03/28 04:59:00;;;;;;;;;;;;;;;;;;4427673;32;19982;-82
2023/03/28 05:01:26;;;;;;;;;;;;;;;;;;4445725;32;19933;-82
2023/03/28 05:03:51;;;;;;;;;;;;;;;;;;4430393;32;19972;-81
2023/03/28 05:06:17;;;;;;;;;;;;;;;;;;4441987;32;19945;-81
2023/03/28 05:08:43;;;;;;;;;;;;;;;;;;4447104;32;19947;-81
2023/03/28 05:11:08;;;;;;;;;;;;;;;;;;4428000;32;20329;-81
2023/03/28 05:13:33;;;;;;;;;;;;;;;;;;4438060;32;20226;-81
2023/03/28 05:15:58;;;;;;;;;;;;;;;;;;4436990;32;19964;-81
2023/03/28 05:18:24;;;;;;;;;;;;;;;;;;4436816;32;19940;-82
2023/03/28 05:20:49;;;;;;;;;;;;;;;;;;4422748;32;20273;-81
2023/03/28 05:23:14;;;;;;;;;;;;;;;;;;4422638;32;19952;-82
2023/03/28 05:25:39;;;;;;;;;;;;;;;;;;4439494;32;20355;-82
2023/03/28 05:28:04;;;;;;;;;;;;;;;;;;4439166;32;19947;-82
2023/03/28 05:30:30;;;;;;;;;;;;;;;;;;4424822;32;19973;-81
2023/03/28 05:32:55;;;;;;;;;;;;;;;;;;4425182;32;19933;-82
2023/03/28 05:35:20;;;;;;;;;;;;;;;;;;4425165;32;20027;-81
2023/03/28 05:37:45;;;;;;;;;;;;;;;;;;4424913;32;19979;-82
2023/03/28 05:40:10;;;;;;;;;;;;;;;;;;4438925;32;19945;-82
2023/03/28 05:42:36;;;;;;;;;;;;;;;;;;4438900;32;19956;-81
2023/03/28 05:45:01;;;;;;;;;;;;;;;;;;4425185;32;19980;-81
2023/03/28 05:47:26;;;;;;;;;;;;;;;;;;4425222;32;19952;-81
2023/03/28 05:49:51;;;;;;;;;;;;;;;;;;4428328;32;19995;-80
2023/03/28 05:52:16;;;;;;;;;;;;;;;;;;4420149;32;19937;-82
2023/03/28 05:54:41;;;;;;;;;;;;;;;;;;4410337;32;20007;-82
2023/03/28 05:57:06;;;;;;;;;;;;;;;;;;4424379;32;19937;-83
2023/03/28 05:59:31;;;;;;;;;;;;;;;;;;4409871;32;20001;-81
2023/03/28 06:01:57;;;;;;;;;;;;;;;;;;4423148;32;19941;-81
2023/03/28 06:04:22;;;;;;;;;;;;;;;;;;4410179;32;19982;-81
2023/03/28 06:06:50;;;;;;;;;;;;;;;;;;4425121;32;19933;-82
2023/03/28 06:09:15;;;;;;;;;;;;;;;;;;4414087;32;19963;-82
2023/03/28 06:11:41;;;;;;;;;;;;;;;;;;4415322;32;20367;-81
2023/03/28 06:14:06;;;;;;;;;;;;;;;;;;4413418;32;20069;-81
2023/03/28 06:16:31;;;;;;;;;;;;;;;;;;4409706;32;19968;-81
2023/03/28 06:18:56;;;;;;;;;;;;;;;;;;4409908;32;19981;-81
2023/03/28 06:21:21;;;;;;;;;;;;;;;;;;4410271;32;19945;-81
2023/03/28 06:23:47;;;;;;;;;;;;;;;;;;4424862;32;19941;-82
2023/03/28 06:26:12;;;;;;;;;;;;;;;;;;4410095;32;19937;-82
2023/03/28 06:28:37;;;;;;;;;;;;;;;;;;4410183;32;19937;-82
2023/03/28 06:31:02;;;;;;;;;;;;;;;;;;4411722;32;19953;-81
2023/03/28 06:33:27;;;;;;;;;;;;;;;;;;4433166;32;19933;-82
2023/03/28 06:35:52;;;;;;;;;;;;;;;;;;4410823;32;19941;-81
2023/03/28 06:38:17;;;;;;;;;;;;;;;;;;4409821;32;19938;-81
2023/03/28 06:40:42;;;;;;;;;;;;;;;;;;4409502;32;20003;-82
2023/03/28 06:43:08;;;;;;;;;;;;;;;;;;4424247;32;20350;-82
2023/03/28 06:45:33;;;;;;;;;;;;;;;;;;4410096;32;20356;-80
2023/03/28 06:47:58;;;;;;;;;;;;;;;;;;4409337;32;19956;-80
2023/03/28 06:50:23;;;;;;;;;;;;;;;;;;4409344;32;19947;-79
2023/03/28 06:52:48;;;;;;;;;;;;;;;;;;4409746;32;19952;-81
2023/03/28 06:55:13;;;;;;;;;;;;;;;;;;4409997;32;19991;-81
2023/03/28 06:57:38;;;;;;;;;;;;;;;;;;4413891;32;19941;-79
2023/03/28 07:00:04;;;;;;;;;;;;;;;;;;4413569;32;20273;-81
2023/03/28 07:02:29;;;;;;;;;;;;;;;;;;4409774;32;19937;-80
2023/03/28 07:04:54;;;;;;;;;;;;;;;;;;4413821;32;19940;-82
2023/03/28 07:07:21;;;;;;;;;;;;;;;;;;4424928;32;19945;-81
2023/03/28 07:09:47;;;;;;;;;;;;;;;;;;4424249;32;19973;-81
2023/03/28 07:12:12;;;;;;;;;;;;;;;;;;4424123;32;19972;-81
2023/03/28 07:14:39;;;;;;;;;;;;;;;;;;4424073;32;19952;-82
2023/03/28 07:17:04;;;;;;;;;;;;;;;;;;4430103;32;20245;-81
2023/03/28 07:19:29;;;;;;;;;;;;;;;;;;4449312;32;19949;-81
2023/03/28 07:21:55;;;;;;;;;;;;;;;;;;4436159;32;20355;-81
2023/03/28 07:24:20;;;;;;;;;;;;;;;;;;4435043;32;19963;-81
2023/03/28 07:26:45;;;;;;;;;;;;;;;;;;4425902;32;19941;-82
2023/03/28 07:29:10;;;;;;;;;;;;;;;;;;4424239;32;20319;-82
2023/03/28 07:31:36;;;;;;;;;;;;;;;;;;4438509;32;19937;-81
2023/03/28 07:34:01;;;;;;;;;;;;;;;;;;4426293;32;20339;-81
2023/03/28 07:36:26;;;;;;;;;;;;;;;;;;4423852;32;19984;-81
2023/03/28 07:38:51;;;;;;;;;;;;;;;;;;4423868;32;19936;-80
2023/03/28 07:41:16;;;;;;;;;;;;;;;;;;4437731;32;19933;-81
2023/03/28 07:43:41;;;;;;;;;;;;;;;;;;4423695;32;19980;-82
2023/03/28 07:46:06;;;;;;;;;;;;;;;;;;4423271;32;19978;-82
2023/03/28 07:48:32;;;;;;;;;;;;;;;;;;4437871;32;20330;-81
2023/03/28 07:50:58;;;;;;;;;;;;;;;;;;4439035;32;19937;-80
2023/03/28 07:53:23;;;;;;;;;;;;;;;;;;4438570;32;19955;-82
2023/03/28 07:55:48;;;;;;;;;;;;;;;;;;4425597;32;19937;-82
2023/03/28 07:58:13;;;;;;;;;;;;;;;;;;4424935;32;20359;-83
2023/03/28 08:00:38;;;;;;;;;;;;;;;;;;4424178;32;20341;-82
2023/03/28 08:03:03;;;;;;;;;;;;;;;;;;4424143;32;19941;-82
2023/03/28 08:05:32;;;;;;;;;;;;;;;;;;4438116;32;19954;-80
2023/03/28 08:07:58;;;;;;;;;;;;;;;;;;4437823;32;19970;-80
2023/03/28 08:10:23;;;;;;;;;;;;;;;;;;4424268;32;19933;-81
2023/03/28 08:12:48;;;;;;;;;;;;;;;;;;4437906;32;20052;-80
2023/03/28 08:15:13;;;;;;;;;;;;;;;;;;4423553;32;20313;-81
2023/03/28 08:17:38;;;;;;;;;;;;;;;;;;4423679;32;19937;-80
2023/03/28 08:20:07;;;;;;;;;;;;;;;;;;4438216;32;19937;-81
2023/03/28 08:22:32;;;;;;;;;;;;;;;;;;4433556;32;19943;-83
2023/03/28 08:24:57;;;;;;;;;;;;;;;;;;4429629;32;19941;-81
2023/03/28 08:27:22;;;;;;;;;;;;;;;;;;4431463;32;19934;-81
2023/03/28 08:29:47;;;;;;;;;;;;;;;;;;4416609;32;19937;-82
2023/03/28 08:32:12;;;;;;;;;;;;;;;;;;4418636;32;19933;-81
2023/03/28 08:34:39;;;;;;;;;;;;;;;;;;4424169;32;19944;-81
2023/03/28 08:37:04;;;;;;;;;;;;;;;;;;4446511;32;19940;-82
2023/03/28 08:39:29;;;;;;;;;;;;;;;;;;4441730;32;19936;-81
2023/03/28 08:41:55;;;;;;;;;;;;;;;;;;4440412;32;19936;-83
2023/03/28 08:44:20;;;;;;;;;;;;;;;;;;4442170;32;19996;-82
2023/03/28 08:46:46;;;;;;;;;;;;;;;;;;4461542;32;19931;-80
2023/03/28 08:49:11;;;;;;;;;;;;;;;;;;4451914;32;19931;-82
2023/03/28 08:51:36;;;;;;;;;;;;;;;;;;4442201;32;19984;-80
2023/03/28 08:54:01;;;;;;;;;;;;;;;;;;4446141;32;19932;-82
2023/03/28 08:56:26;;;;;;;;;;;;;;;;;;4453718;32;19929;-82
2023/03/28 08:58:51;;;;;;;;;;;;;;;;;;4449653;32;19930;-84
2023/03/28 09:01:22;;;;;;;;;;;;;;;;;;4450046;32;19953;-84
2023/03/28 09:03:48;;;;;;;;;;;;;;;;;;4438824;32;19932;-85
2023/03/28 09:06:15;;;;;;;;;;;;;;;;;;4436490;32;19947;-83
2023/03/28 09:08:40;;;;;;;;;;;;;;;;;;4428610;32;19929;-82
2023/03/28 09:11:05;;;;;;;;;;;;;;;;;;4429757;32;19944;-82
2023/03/28 09:13:30;;;;;;;;;;;;;;;;;;4431231;32;19970;-83
2023/03/28 09:15:55;;;;;;;;;;;;;;;;;;4430850;32;19933;-82
2023/03/28 09:18:22;;;;;;;;;;;;;;;;;;4429388;32;20338;-82
2023/03/28 09:20:47;;;;;;;;;;;;;;;;;;4428091;32;19933;-83
2023/03/28 09:23:12;;;;;;;;;;;;;;;;;;4427132;32;19943;-82
2023/03/28 09:25:37;;;;;;;;;;;;;;;;;;4430816;32;19941;-82
2023/03/28 09:28:02;;;;;;;;;;;;;;;;;;4438880;32;19941;-81
2023/03/28 09:30:28;;;;;;;;;;;;;;;;;;4438663;32;19933;-82
2023/03/28 09:32:54;;;;;;;;;;;;;;;;;;4429647;32;19972;-83
2023/03/28 09:35:22;;;;;;;;;;;;;;;;;;4426692;32;19933;-82
2023/03/28 09:37:47;;;;;;;;;;;;;;;;;;4427946;32;20278;-84
2023/03/28 09:40:13;;;;;;;;;;;;;;;;;;4442323;32;19929;-84
2023/03/28 09:42:38;;;;;;;;;;;;;;;;;;4427591;32;20348;-84
2023/03/28 09:45:03;;;;;;;;;;;;;;;;;;4442437;32;20265;-83
2023/03/28 09:47:28;;;;;;;;;;;;;;;;;;4426415;32;20318;-83
2023/03/28 09:49:53;;;;;;;;;;;;;;;;;;4425363;32;20281;-83
2023/03/28 09:52:18;;;;;;;;;;;;;;;;;;4425814;32;19980;-83
2023/03/28 09:54:44;;;;;;;;;;;;;;;;;;4425527;32;19944;-83
2023/03/28 09:57:09;;;;;;;;;;;;;;;;;;4424515;32;19936;-82
2023/03/28 09:59:34;;;;;;;;;;;;;;;;;;4425003;32;19937;-83
2023/03/28 10:02:01;;;;;;;;;;;;;;;;;;4426453;32;19974;-82
2023/03/28 10:04:26;;;;;;;;;;;;;;;;;;4427032;32;19929;-83
2023/03/28 10:06:51;;;;;;;;;;;;;;;;;;4440380;32;19955;-81
2023/03/28 10:09:17;;;;;;;;;;;;;;;;;;4426136;32;19992;-82
2023/03/28 10:11:42;;;;;;;;;;;;;;;;;;4425137;32;19936;-83
2023/03/28 10:14:08;;;;;;;;;;;;;;;;;;4427960;32;19937;-82
2023/03/28 10:16:33;;;;;;;;;;;;;;;;;;4425774;32;19929;-82
2023/03/28 10:18:58;;;;;;;;;;;;;;;;;;4425712;32;19936;-83
2023/03/28 10:21:23;;;;;;;;;;;;;;;;;;4440352;32;19967;-82
2023/03/28 10:23:48;;;;;;;;;;;;;;;;;;4424726;32;19941;-83
2023/03/28 10:26:13;;;;;;;;;;;;;;;;;;4425002;32;19953;-84
2023/03/28 10:28:38;;;;;;;;;;;;;;;;;;4440630;32;19933;-83
2023/03/28 10:31:04;;;;;;;;;;;;;;;;;;4430660;32;19947;-82
2023/03/28 10:33:31;;;;;;;;;;;;;;;;;;4435040;32;19965;-82
2023/03/28 10:35:56;;;;;;;;;;;;;;;;;;4430974;32;19932;-84
2023/03/28 10:38:21;;;;;;;;;;;;;;;;;;4424660;32;19970;-84
2023/03/28 10:40:46;;;;;;;;;;;;;;;;;;4425866;32;19930;-84
2023/03/28 10:43:11;;;;;;;;;;;;;;;;;;4424875;32;20273;-83
2023/03/28 10:45:36;;;;;;;;;;;;;;;;;;4438274;32;19964;-83
2023/03/28 10:48:02;;;;;;;;;;;;;;;;;;4424456;32;20004;-83
2023/03/28 10:50:27;;;;;;;;;;;;;;;;;;4423806;32;20325;-81
2023/03/28 10:52:52;;;;;;;;;;;;;;;;;;4424552;32;19965;-83
2023/03/28 10:55:18;;;;;;;;;;;;;;;;;;4438714;32;19973;-84
2023/03/28 10:57:43;;;;;;;;;;;;;;;;;;4424714;32;19992;-83
2023/03/28 11:00:11;;;;;;;;;;;;;;;;;;4424065;32;19937;-84
2023/03/28 11:02:36;;;;;;;;;;;;;;;;;;4424063;32;19929;-83
2023/03/28 11:05:01;;;;;;;;;;;;;;;;;;4423858;32;19995;-83
2023/03/28 11:07:26;;;;;;;;;;;;;;;;;;4424511;32;19941;-85
2023/03/28 11:09:51;;;;;;;;;;;;;;;;;;4424258;32;19932;-84
2023/03/28 11:12:16;;;;;;;;;;;;;;;;;;4424280;32;19956;-85
2023/03/28 11:14:41;;;;;;;;;;;;;;;;;;4425917;32;19946;-84
2023/03/28 11:17:07;;;;;;;;;;;;;;;;;;4427973;32;20280;-85
2023/03/28 11:19:32;;;;;;;;;;;;;;;;;;4426139;32;19987;-83
2023/03/28 11:21:57;;;;;;;;;;;;;;;;;;4425758;32;19946;-84
2023/03/28 11:24:22;;;;;;;;;;;;;;;;;;4424762;32;19948;-86
2023/03/28 11:26:47;;;;;;;;;;;;;;;;;;4417912;32;19975;-86
2023/03/28 11:29:12;;;;;;;;;;;;;;;;;;4424719;32;19937;-83
2023/03/28 11:31:38;;;;;;;;;;;;;;;;;;4441724;32;19970;-84
2023/03/28 11:34:03;;;;;;;;;;;;;;;;;;4440316;32;19979;-88
2023/03/28 11:36:28;;;;;;;;;;;;;;;;;;4428982;32;19933;-84
2023/03/28 11:38:53;;;;;;;;;;;;;;;;;;4440210;32;19966;-84
2023/03/28 11:41:18;;;;;;;;;;;;;;;;;;4451582;32;19940;-86
2023/03/28 11:43:43;;;;;;;;;;;;;;;;;;4443776;32;19944;-84
2023/03/28 11:46:08;;;;;;;;;;;;;;;;;;4423381;32;19941;-83
2023/03/28 11:48:34;;;;;;;;;;;;;;;;;;4423181;32;19936;-84
2023/03/28 11:51:00;;;;;;;;;;;;;;;;;;4436861;32;19963;-84
2023/03/28 11:53:25;;;;;;;;;;;;;;;;;;4435441;32;19990;-85
2023/03/28 11:55:50;;;;;;;;;;;;;;;;;;4435147;32;19933;-85
2023/03/28 11:58:15;;;;;;;;;;;;;;;;;;4428995;32;19960;-85
2023/03/28 12:00:40;;;;;;;;;;;;;;;;;;4427701;32;19937;-85
2023/03/28 12:03:06;;;;;;;;;;;;;;;;;;4425019;32;19948;-83
2023/03/28 12:05:31;;;;;;;;;;;;;;;;;;4424765;32;20392;-85
2023/03/28 12:07:56;;;;;;;;;;;;;;;;;;4423277;32;20356;-84
2023/03/28 12:10:22;;;;;;;;;;;;;;;;;;4422329;32;20036;-87
2023/03/28 12:12:47;;;;;;;;;;;;;;;;;;4423635;32;19941;-85
2023/03/28 12:15:12;;;;;;;;;;;;;;;;;;4422287;32;20287;-84
2023/03/28 12:17:37;;;;;;;;;;;;;;;;;;4423514;32;20284;-83
2023/03/28 12:20:06;;;;;;;;;;;;;;;;;;4422633;32;19947;-83
2023/03/28 12:22:33;;;;;;;;;;;;;;;;;;4422614;32;20021;-82
2023/03/28 12:24:59;;;;;;;;;;;;;;;;;;4425598;32;20342;-83
2023/03/28 12:27:27;;;;;;;;;;;;;;;;;;4424122;32;19929;-83
2023/03/28 12:29:52;;;;;;;;;;;;;;;;;;4424214;32;19939;-84
2023/03/28 12:32:17;;;;;;;;;;;;;;;;;;4424895;32;19937;-83
2023/03/28 12:34:42;;;;;;;;;;;;;;;;;;4422832;32;20361;-84
2023/03/28 12:37:10;;;;;;;;;;;;;;;;;;4422756;32;20338;-85
2023/03/28 12:39:36;;;;;;;;;;;;;;;;;;4422942;32;19963;-81
2023/03/28 12:42:02;;;;;;;;;;;;;;;;;;4422572;32;20374;-85
2023/03/28 12:44:27;;;;;;;;;;;;;;;;;;4421082;32;19945;-85
2023/03/28 12:46:52;;;;;;;;;;;;;;;;;;4421946;32;19956;-83
2023/03/28 12:49:17;;;;;;;;;;;;;;;;;;4420261;32;19947;-83
2023/03/28 12:51:42;;;;;;;;;;;;;;;;;;4420323;32;19933;-84
2023/03/28 12:54:07;;;;;;;;;;;;;;;;;;4421172;32;19932;-85
2023/03/28 12:56:32;;;;;;;;;;;;;;;;;;4421625;32;19937;-83
2023/03/28 12:58:58;;;;;;;;;;;;;;;;;;4420897;32;19952;-84
2023/03/28 13:01:24;;;;;;;;;;;;;;;;;;4420693;32;19933;-84
2023/03/28 13:03:50;;;;;;;;;;;;;;;;;;4424351;32;20009;-82
2023/03/28 13:06:15;;;;;;;;;;;;;;;;;;4436697;32;19936;-85
2023/03/28 13:08:41;;;;;;;;;;;;;;;;;;4454716;32;19999;-84
2023/03/28 13:11:06;;;;;;;;;;;;;;;;;;4441751;32;19947;-84
2023/03/28 13:13:31;;;;;;;;;;;;;;;;;;4444552;32;19933;-83
2023/03/28 13:15:57;;;;;;;;;;;;;;;;;;4441526;32;19951;-83
2023/03/28 13:18:23;;;;;;;;;;;;;;;;;;4441163;32;20350;-82
2023/03/28 13:20:50;;;;;;;;;;;;;;;;;;4439161;32;20345;-85
2023/03/28 13:23:16;;;;;;;;;;;;;;;;;;4439973;32;19932;-83
2023/03/28 13:25:41;;;;;;;;;;;;;;;;;;4439000;32;19980;-83
2023/03/28 13:28:06;;;;;;;;;;;;;;;;;;4422291;32;20005;-82
2023/03/28 13:30:31;;;;;;;;;;;;;;;;;;4421854;32;19937;-84
2023/03/28 13:32:57;;;;;;;;;;;;;;;;;;4421807;32;19936;-85
2023/03/28 13:35:22;;;;;;;;;;;;;;;;;;4423537;32;20326;-83
2023/03/28 13:37:47;;;;;;;;;;;;;;;;;;4422957;32;19948;-85
2023/03/28 13:40:12;;;;;;;;;;;;;;;;;;4423240;32;19949;-84
2023/03/28 13:42:37;;;;;;;;;;;;;;;;;;4427035;32;20309;-81
2023/03/28 13:45:02;;;;;;;;;;;;;;;;;;4429060;32;19937;-82
2023/03/28 13:47:27;;;;;;;;;;;;;;;;;;4428425;32;19941;-84
2023/03/28 13:49:52;;;;;;;;;;;;;;;;;;4447566;32;19974;-84
2023/03/28 13:52:18;;;;;;;;;;;;;;;;;;4438207;32;19965;-83
2023/03/28 13:54:44;;;;;;;;;;;;;;;;;;4428168;32;19970;-82
2023/03/28 13:57:10;;;;;;;;;;;;;;;;;;4426193;32;19976;-83
2023/03/28 13:59:35;;;;;;;;;;;;;;;;;;4434786;32;19944;-84
2023/03/28 14:02:00;;;;;;;;;;;;;;;;;;4431805;32;19968;-83
2023/03/28 14:04:25;;;;;;;;;;;;;;;;;;4428476;32;19966;-83
2023/03/28 14:06:51;;;;;;;;;;;;;;;;;;4427712;32;19976;-82
2023/03/28 14:09:16;;;;;;;;;;;;;;;;;;4418172;32;19941;-82
2023/03/28 14:11:41;;;;;;;;;;;;;;;;;;4426338;32;20354;-82
2023/03/28 14:14:06;;;;;;;;;;;;;;;;;;4423015;32;19937;-84
2023/03/28 14:16:34;;;;;;;;;;;;;;;;;;4424310;32;19983;-83
2023/03/28 14:18:59;;;;;;;;;;;;;;;;;;4422942;32;19984;-83
2023/03/28 14:21:24;;;;;;;;;;;;;;;;;;4424704;32;19933;-84
2023/03/28 14:23:50;;;;;;;;;;;;;;;;;;4425814;32;19932;-84
2023/03/28 14:26:15;;;;;;;;;;;;;;;;;;4424264;32;19941;-83
2023/03/28 14:28:40;;;;;;;;;;;;;;;;;;4422921;32;19968;-82
2023/03/28 14:31:05;;;;;;;;;;;;;;;;;;4424432;32;19998;-82
2023/03/28 14:33:30;;;;;;;;;;;;;;;;;;4423325;32;19980;-84
2023/03/28 14:35:56;;;;;;;;;;;;;;;;;;4425059;32;20300;-84
2023/03/28 14:38:21;;;;;;;;;;;;;;;;;;4424119;32;19978;-84
2023/03/28 14:40:46;;;;;;;;;;;;;;;;;;4428656;32;19972;-84
2023/03/28 14:43:12;;;;;;;;;;;;;;;;;;4430967;32;19932;-83
2023/03/28 14:45:37;;;;;;;;;;;;;;;;;;4435206;32;19947;-83
2023/03/28 14:48:03;;;;;;;;;;;;;;;;;;4435710;32;19937;-83
2023/03/28 14:50:28;;;;;;;;;;;;;;;;;;4444759;32;20278;-83
2023/03/28 14:52:53;;;;;;;;;;;;;;;;;;4427729;32;19945;-82
2023/03/28 14:55:18;;;;;;;;;;;;;;;;;;4425747;32;19944;-83
2023/03/28 14:57:44;;;;;;;;;;;;;;;;;;4424638;32;19930;-81
2023/03/28 15:00:11;;;;;;;;;;;;;;;;;;4425318;32;19933;-84
2023/03/28 15:02:40;;;;;;;;;;;;;;;;;;4424208;32;19984;-83
2023/03/28 15:05:06;;;;;;;;;;;;;;;;;;4424412;32;19991;-82
2023/03/28 15:07:31;;;;;;;;;;;;;;;;;;4439216;32;20032;-82
2023/03/28 15:09:57;;;;;;;;;;;;;;;;;;4426918;32;19990;-83
2023/03/28 15:12:22;;;;;;;;;;;;;;;;;;4424050;32;20010;-82
2023/03/28 15:14:48;;;;;;;;;;;;;;;;;;4424041;32;20357;-82
2023/03/28 15:17:13;;;;;;;;;;;;;;;;;;4424216;32;19933;-83
2023/03/28 15:19:39;;;;;;;;;;;;;;;;;;4424249;32;19947;-81
2023/03/28 15:22:05;;;;;;;;;;;;;;;;;;4441946;32;19937;-81
2023/03/28 15:24:30;;;;;;;;;;;;;;;;;;4425197;32;19929;-82
2023/03/28 15:26:55;;;;;;;;;;;;;;;;;;4415485;32;20363;-80
2023/03/28 15:29:20;;;;;;;;;;;;;;;;;;4409679;32;19980;-81
2023/03/28 15:31:46;;;;;;;;;;;;;;;;;;4410243;32;19942;-82
2023/03/28 15:34:11;;;;;;;;;;;;;;;;;;4424407;32;19976;-83
2023/03/28 15:36:36;;;;;;;;;;;;;;;;;;4411921;32;19941;-83
2023/03/28 15:39:02;;;;;;;;;;;;;;;;;;4410484;32;19933;-81
2023/03/28 15:41:31;;;;;;;;;;;;;;;;;;4411100;32;19993;-82
2023/03/28 15:43:56;;;;;;;;;;;;;;;;;;4412920;32;20365;-82
2023/03/28 15:46:21;;;;;;;;;;;;;;;;;;4413463;32;20428;-82
2023/03/28 15:48:46;;;;;;;;;;;;;;;;;;4428869;32;19938;-83
2023/03/28 15:51:11;;;;;;;;;;;;;;;;;;4415993;32;19987;-83
2023/03/28 15:53:37;;;;;;;;;;;;;;;;;;4424954;32;19940;-83
2023/03/28 15:56:02;;;;;;;;;;;;;;;;;;4427213;32;19932;-82
2023/03/28 15:58:27;;;;;;;;;;;;;;;;;;4427730;32;19956;-81
2023/03/28 16:00:53;;;;;;;;;;;;;;;;;;4445366;32;19986;-81
2023/03/28 16:03:18;;;;;;;;;;;;;;;;;;4438226;32;19953;-82
2023/03/28 16:05:43;;;;;;;;;;;;;;;;;;4428338;32;19992;-82
2023/03/28 16:08:09;;;;;;;;;;;;;;;;;;4424457;32;19937;-83
2023/03/28 16:10:34;;;;;;;;;;;;;;;;;;4419807;32;19961;-82
2023/03/28 16:13:00;;;;;;;;;;;;;;;;;;4408948;32;19933;-83
2023/03/28 16:15:25;;;;;;;;;;;;;;;;;;4423762;32;19961;-83
2023/03/28 16:17:50;;;;;;;;;;;;;;;;;;4414107;32;19986;-82
2023/03/28 16:20:15;;;;;;;;;;;;;;;;;;4411990;32;19944;-83
2023/03/28 16:22:40;;;;;;;;;;;;;;;;;;4437146;32;19947;-82
2023/03/28 16:25:06;;;;;;;;;;;;;;;;;;4442914;32;19978;-84
2023/03/28 16:27:31;;;;;;;;;;;;;;;;;;4455925;32;19933;-85
2023/03/28 16:29:56;;;;;;;;;;;;;;;;;;4443540;32;19988;-83
2023/03/28 16:32:22;;;;;;;;;;;;;;;;;;4446770;32;19943;-84